Main page
METAR-TAF:

METAR-TAF

Airports :

Clines Corners, New Mexico, United States

latitude: 35-00N, longitude: 105-40W, elevation: 7085 ft

Current weather observation

The report was made 12 minutes ago, at 14:53 UTC
Wind 17 mph from the East/Southeast
Temperature 54°F
Humidity 82%
Pressure 30.25 in. Hg
Visibility: 10 miles
Broken clouds at a height of 900 ft
Overcast at a height of 1500 ft

METAR: KCQC 211453Z AUTO 12015KT 10SM BKN009 OVC015 12/09 A3025 RMK AO2 CIG 007V011 SLP171 T01220094 51013

Time: 09:05 (15:05 UTC)


TAF: missing

Weather observations and forecasts of more than 4000 airports (METAR and TAF reports).

The available stations are represented by yellow and red dots on the map.

Hover mouse over dot to see the name of the station.

Then click to see weather observations and forecasts.

To change the map : click on the green buttons with a black cross to zoom in, on the green button with a dash to zoom out, or on the green arrows for adjacent maps.


METAR-TAF: